Time;durP1;ratioP1;P1;durP2;ratioP2;P2;SDS_P1;SDS_P2;PMS_P1;PMS_P2;Temp;Humidity;BMP_temperature;BMP_pressure;BME280_temperature;BME280_humidity;BME280_pressure;Samples;Min_cycle;Max_cycle;Signal;HPM_P1;HPM_P2
2024/01/02 00:00:39;;;;;;;;;;;6.10;99.90;;;;;;5068823;28;20461;-79
2024/01/02 00:03:05;;;;;;;;;;;6.10;99.90;;;;;;5072963;28;19939;-81
2024/01/02 00:05:30;;;;;;;;;;;6.50;99.90;;;;;;5055708;28;19927;-81
2024/01/02 00:07:56;;;;;;;;;;;6.10;99.90;;;;;;5056200;28;20304;-82
2024/01/02 00:10:22;;;;;;;;;;;6.10;99.90;;;;;;5052450;28;20640;-81
2024/01/02 00:12:48;;;;;;;;;;;6.10;99.90;;;;;;5069839;28;20393;-84
2024/01/02 00:15:13;;;;;;;;;;;6.10;99.90;;;;;;5073257;28;19959;-81
2024/01/02 00:17:40;;;;;;;;;;;6.10;99.90;;;;;;5069387;28;20046;-85
2024/01/02 00:20:07;;;;;;;;;;;6.10;99.90;;;;;;5055292;28;20018;-83
2024/01/02 00:22:32;;;;;;;;;;;6.20;99.90;;;;;;5055669;28;19988;-82
2024/01/02 00:24:58;;;;;;;;;;;6.20;99.90;;;;;;5055721;28;20287;-82
2024/01/02 00:27:24;;;;;;;;;;;6.20;99.90;;;;;;5074956;28;19927;-82
2024/01/02 00:29:50;;;;;;;;;;;6.10;99.90;;;;;;5069985;28;19928;-82
2024/01/02 00:32:15;;;;;;;;;;;6.20;99.90;;;;;;5073829;28;19931;-81
2024/01/02 00:34:41;;;;;;;;;;;6.20;99.90;;;;;;5093068;27;19927;-81
2024/01/02 00:37:07;;;;;;;;;;;6.20;99.90;;;;;;5076977;28;20718;-84
2024/01/02 00:39:32;;;;;;;;;;;6.20;99.90;;;;;;5074488;28;19928;-81
2024/01/02 00:41:58;;;;;;;;;;;6.20;99.90;;;;;;5057818;27;20010;-84
2024/01/02 00:44:23;;;;;;;;;;;6.20;99.90;;;;;;5074033;27;20447;-84
2024/01/02 00:46:49;;;;;;;;;;;6.20;99.90;;;;;;5075167;27;19964;-85
2024/01/02 00:49:16;;;;;;;;;;;6.20;99.90;;;;;;5093062;28;20027;-79
2024/01/02 00:51:41;;;;;;;;;;;6.10;99.90;;;;;;5070892;28;19932;-83
2024/01/02 00:54:07;;;;;;;;;;;6.20;99.90;;;;;;5073972;28;20275;-84
2024/01/02 00:56:32;;;;;;;;;;;6.30;99.90;;;;;;5057766;28;19927;-81
2024/01/02 00:58:58;;;;;;;;;;;6.20;99.90;;;;;;5092880;28;21815;-81
2024/01/02 01:01:24;;;;;;;;;;;5.70;99.90;;;;;;5076945;28;19932;-86
2024/01/02 01:03:49;;;;;;;;;;;6.10;99.90;;;;;;5071070;28;19931;-82
2024/01/02 01:06:15;;;;;;;;;;;6.10;99.90;;;;;;5039463;28;19938;-83
2024/01/02 01:08:41;;;;;;;;;;;6.20;99.90;;;;;;5094579;27;20476;-83
2024/01/02 01:11:07;;;;;;;;;;;6.10;99.90;;;;;;5072895;28;19959;-83
2024/01/02 01:13:33;;;;;;;;;;;6.10;99.90;;;;;;5057924;28;19954;-85
2024/01/02 01:15:59;;;;;;;;;;;6.10;99.90;;;;;;5075705;28;19920;-86
2024/01/02 01:18:25;;;;;;;;;;;6.20;99.90;;;;;;5095054;27;19928;-86
2024/01/02 01:20:51;;;;;;;;;;;6.10;99.90;;;;;;5059300;28;20250;-81
2024/01/02 01:23:17;;;;;;;;;;;6.10;99.90;;;;;;5073615;28;19952;-80
2024/01/02 01:25:42;;;;;;;;;;;6.70;99.90;;;;;;5073964;28;20461;-86
2024/01/02 01:28:08;;;;;;;;;;;6.10;99.90;;;;;;5075234;28;19928;-86
2024/01/02 01:30:34;;;;;;;;;;;6.10;99.90;;;;;;5058178;28;19932;-87
2024/01/02 01:32:59;;;;;;;;;;;6.10;99.90;;;;;;5074479;28;19978;-86
2024/01/02 01:35:25;;;;;;;;;;;6.10;99.90;;;;;;5058056;28;19924;-83
2024/01/02 01:37:50;;;;;;;;;;;6.10;99.90;;;;;;5077190;28;19928;-84
2024/01/02 01:40:20;;;;;;;;;;;6.10;99.90;;;;;;5074564;28;20295;-88
2024/01/02 01:42:46;;;;;;;;;;;6.10;99.90;;;;;;5078074;28;19927;-87
2024/01/02 01:45:12;;;;;;;;;;;6.10;99.90;;;;;;5056938;28;19928;-81
2024/01/02 01:47:38;;;;;;;;;;;6.20;99.90;;;;;;5043769;28;19927;-83
2024/01/02 01:50:04;;;;;;;;;;;6.20;99.90;;;;;;5064623;27;19974;-83
2024/01/02 01:52:32;;;;;;;;;;;6.20;99.90;;;;;;5059233;28;19935;-83
2024/01/02 01:54:58;;;;;;;;;;;6.20;99.90;;;;;;5075396;28;19932;-80
2024/01/02 01:57:24;;;;;;;;;;;6.20;99.90;;;;;;5070981;28;19934;-86
2024/01/02 01:59:50;;;;;;;;;;;6.20;99.90;;;;;;5052767;28;19930;-85
2024/01/02 02:02:15;;;;;;;;;;;6.20;99.90;;;;;;5054748;28;19939;-84
2024/01/02 02:04:45;;;;;;;;;;;6.20;99.90;;;;;;5072742;28;19935;-83
2024/01/02 02:07:10;;;;;;;;;;;6.20;99.90;;;;;;5073945;28;19931;-85
2024/01/02 02:09:36;;;;;;;;;;;6.20;99.90;;;;;;5074290;28;21708;-83
2024/01/02 02:12:03;;;;;;;;;;;6.20;99.90;;;;;;5071182;28;19932;-86
2024/01/02 02:14:29;;;;;;;;;;;6.20;99.90;;;;;;5090419;28;19931;-85
2024/01/02 02:16:55;;;;;;;;;;;6.20;99.90;;;;;;5058855;28;19932;-85
2024/01/02 02:19:20;;;;;;;;;;;6.20;99.90;;;;;;5056662;28;20385;-86
2024/01/02 02:21:50;;;;;;;;;;;6.20;99.90;;;;;;5092653;28;19985;-85
2024/01/02 02:24:16;;;;;;;;;;;6.10;99.90;;;;;;5073270;28;20294;-86
2024/01/02 02:26:42;;;;;;;;;;;6.20;99.90;;;;;;5092553;27;19927;-85
2024/01/02 02:29:07;;;;;;;;;;;6.30;99.90;;;;;;5057693;28;19962;-79
2024/01/02 02:31:33;;;;;;;;;;;6.30;99.90;;;;;;5074408;28;20567;-82
2024/01/02 02:34:00;;;;;;;;;;;6.30;99.90;;;;;;5059652;27;19928;-83
2024/01/02 02:36:28;;;;;;;;;;;6.20;99.90;;;;;;5071834;28;19928;-85
2024/01/02 02:38:54;;;;;;;;;;;6.30;99.90;;;;;;5061718;28;19932;-86
2024/01/02 02:41:20;;;;;;;;;;;6.30;99.90;;;;;;5072770;28;20517;-87
2024/01/02 02:43:45;;;;;;;;;;;6.30;99.90;;;;;;5036273;28;19920;-85
2024/01/02 02:46:11;;;;;;;;;;;6.30;99.90;;;;;;5089424;28;19923;-86
2024/01/02 02:48:36;;;;;;;;;;;6.30;99.90;;;;;;5077125;28;19949;-81
2024/01/02 02:51:02;;;;;;;;;;;6.30;99.90;;;;;;5086688;27;20441;-85
2024/01/02 02:53:28;;;;;;;;;;;6.30;99.90;;;;;;5054619;28;19927;-84
2024/01/02 02:55:54;;;;;;;;;;;6.30;99.90;;;;;;5052454;28;19927;-81
2024/01/02 02:58:19;;;;;;;;;;;6.30;99.90;;;;;;5090550;28;19928;-85
2024/01/02 03:00:45;;;;;;;;;;;6.30;99.90;;;;;;5072153;28;19967;-83
2024/01/02 03:03:11;;;;;;;;;;;6.30;99.90;;;;;;5072689;28;19931;-82
2024/01/02 03:05:36;;;;;;;;;;;6.40;99.90;;;;;;5070271;28;19923;-81
2024/01/02 03:08:03;;;;;;;;;;;6.40;99.90;;;;;;5070039;28;19934;-83
2024/01/02 03:10:30;;;;;;;;;;;6.40;99.90;;;;;;5072149;28;21200;-80
2024/01/02 03:12:55;;;;;;;;;;;6.40;99.90;;;;;;5073300;28;21218;-85
2024/01/02 03:15:21;;;;;;;;;;;6.40;99.90;;;;;;5085823;28;19931;-85
2024/01/02 03:17:52;;;;;;;;;;;6.40;99.90;;;;;;5186612;27;19930;-81
2024/01/02 03:20:17;;;;;;;;;;;6.40;99.90;;;;;;5167701;27;19927;-81
2024/01/02 03:22:46;;;;;;;;;;;6.40;99.90;;;;;;5165397;27;19970;-80
2024/01/02 03:25:12;;;;;;;;;;;6.40;99.90;;;;;;5049097;27;2320521;-80
2024/01/02 03:27:40;;;;;;;;;;;7.30;99.90;;;;;;5107944;27;19927;-80
2024/01/02 03:30:08;;;;;;;;;;;6.30;99.90;;;;;;5139154;27;19935;-80
2024/01/02 03:32:38;;;;;;;;;;;6.40;99.90;;;;;;5123348;27;19923;-80
2024/01/02 03:35:04;;;;;;;;;;;6.40;99.90;;;;;;5135312;27;20005;-80
2024/01/02 03:37:30;;;;;;;;;;;6.40;99.90;;;;;;5136274;27;19954;-81
2024/01/02 03:39:56;;;;;;;;;;;6.40;99.90;;;;;;5104801;27;19976;-81
2024/01/02 03:42:25;;;;;;;;;;;6.40;99.90;;;;;;5154219;27;19935;-80
2024/01/02 03:45:06;;;;;;;;;;;6.40;99.90;;;;;;5102599;27;19948;-80
2024/01/02 03:47:32;;;;;;;;;;;6.40;99.90;;;;;;5121432;27;20072;-81
2024/01/02 03:49:58;;;;;;;;;;;6.50;99.90;;;;;;5121149;27;19927;-81
2024/01/02 03:52:23;;;;;;;;;;;7.20;99.90;;;;;;5135836;27;19927;-81
2024/01/02 03:54:49;;;;;;;;;;;6.50;99.90;;;;;;5137870;27;19931;-80
2024/01/02 03:57:15;;;;;;;;;;;6.50;99.90;;;;;;5119959;27;20418;-79
2024/01/02 03:59:43;;;;;;;;;;;6.40;99.90;;;;;;5136012;27;20022;-81
2024/01/02 04:02:09;;;;;;;;;;;6.50;99.90;;;;;;5136562;27;20010;-80
2024/01/02 04:04:38;;;;;;;;;;;6.50;99.90;;;;;;5135158;27;20150;-81
2024/01/02 04:07:04;;;;;;;;;;;6.40;99.90;;;;;;5137518;27;20364;-79
2024/01/02 04:09:30;;;;;;;;;;;6.50;99.90;;;;;;5135390;27;19934;-80
2024/01/02 04:11:55;;;;;;;;;;;6.50;99.90;;;;;;5136390;27;19927;-80
2024/01/02 04:14:21;;;;;;;;;;;6.50;99.90;;;;;;5117339;27;20844;-80
2024/01/02 04:16:47;;;;;;;;;;;6.50;99.90;;;;;;5116547;27;19927;-81
2024/01/02 04:19:12;;;;;;;;;;;6.50;99.90;;;;;;5120108;27;19923;-80
2024/01/02 04:21:38;;;;;;;;;;;6.50;99.90;;;;;;5135397;27;19934;-80
2024/01/02 04:24:04;;;;;;;;;;;6.70;99.90;;;;;;5153533;27;19927;-80
2024/01/02 04:26:29;;;;;;;;;;;6.50;99.90;;;;;;5136329;27;20010;-80
2024/01/02 04:28:55;;;;;;;;;;;6.50;99.90;;;;;;5125643;27;20003;-80
2024/01/02 04:31:21;;;;;;;;;;;6.50;99.90;;;;;;5122461;27;19972;-80
2024/01/02 04:33:47;;;;;;;;;;;6.50;99.90;;;;;;5105408;27;19923;-80
2024/01/02 04:36:12;;;;;;;;;;;6.50;99.90;;;;;;5106491;27;19935;-80
2024/01/02 04:38:38;;;;;;;;;;;6.50;99.90;;;;;;5122429;27;19927;-79
2024/01/02 04:41:04;;;;;;;;;;;6.50;99.90;;;;;;5087508;27;20696;-80
2024/01/02 04:43:29;;;;;;;;;;;6.60;99.90;;;;;;5121421;27;19932;-80
2024/01/02 04:45:55;;;;;;;;;;;6.50;99.90;;;;;;5122087;27;19968;-80
2024/01/02 04:48:26;;;;;;;;;;;6.50;99.90;;;;;;5090067;27;19927;-80
2024/01/02 04:50:52;;;;;;;;;;;6.50;99.90;;;;;;5122612;27;19979;-80
2024/01/02 04:53:18;;;;;;;;;;;6.50;99.90;;;;;;5119749;27;20655;-81
2024/01/02 04:55:43;;;;;;;;;;;6.50;99.90;;;;;;5088342;27;20311;-80
2024/01/02 04:58:09;;;;;;;;;;;6.50;99.90;;;;;;5107136;27;19930;-80
2024/01/02 05:00:34;;;;;;;;;;;6.50;99.90;;;;;;5104281;27;19926;-80
2024/01/02 05:03:01;;;;;;;;;;;6.50;99.90;;;;;;5105692;27;20568;-80
2024/01/02 05:05:27;;;;;;;;;;;6.50;99.90;;;;;;5118739;27;20104;-79
2024/01/02 05:07:52;;;;;;;;;;;6.60;99.90;;;;;;5119531;27;20284;-78
2024/01/02 05:10:18;;;;;;;;;;;6.60;99.90;;;;;;5137274;27;20021;-79
2024/01/02 05:12:45;;;;;;;;;;;6.60;99.90;;;;;;5119277;27;20318;-79
2024/01/02 05:15:10;;;;;;;;;;;6.60;99.90;;;;;;5138263;27;19935;-79
2024/01/02 05:17:36;;;;;;;;;;;6.60;99.90;;;;;;5103815;27;19923;-79
2024/01/02 05:20:03;;;;;;;;;;;6.60;99.90;;;;;;5120750;27;20241;-80
2024/01/02 05:22:29;;;;;;;;;;;6.60;99.90;;;;;;5122811;27;19950;-77
2024/01/02 05:24:54;;;;;;;;;;;6.60;99.90;;;;;;5119040;27;20381;-79
2024/01/02 05:27:20;;;;;;;;;;;6.70;99.90;;;;;;5119106;27;19958;-79
2024/01/02 05:29:46;;;;;;;;;;;6.60;99.90;;;;;;5120110;27;20408;-79
2024/01/02 05:32:11;;;;;;;;;;;6.60;99.90;;;;;;5106967;27;20366;-79
2024/01/02 05:34:37;;;;;;;;;;;6.60;99.90;;;;;;5137733;27;20219;-79
2024/01/02 05:37:03;;;;;;;;;;;6.50;99.90;;;;;;5103719;27;19935;-79
2024/01/02 05:39:29;;;;;;;;;;;6.70;99.90;;;;;;5119274;27;19927;-79
2024/01/02 05:41:54;;;;;;;;;;;6.70;99.90;;;;;;5119602;27;19970;-79
2024/01/02 05:44:20;;;;;;;;;;;6.70;99.90;;;;;;5106135;27;19931;-79
2024/01/02 05:46:45;;;;;;;;;;;6.70;99.90;;;;;;5117684;27;20397;-79
2024/01/02 05:49:11;;;;;;;;;;;6.70;99.90;;;;;;5119682;27;19937;-78
2024/01/02 05:51:37;;;;;;;;;;;6.70;99.90;;;;;;5118852;27;19924;-79
2024/01/02 05:54:03;;;;;;;;;;;6.70;99.90;;;;;;5120097;27;19958;-79
2024/01/02 05:56:28;;;;;;;;;;;6.70;99.90;;;;;;5119406;27;19934;-79
2024/01/02 05:58:54;;;;;;;;;;;6.70;99.90;;;;;;5120192;27;19927;-79
2024/01/02 06:01:20;;;;;;;;;;;6.80;99.90;;;;;;5104980;27;19923;-79
2024/01/02 06:03:45;;;;;;;;;;;6.90;99.90;;;;;;5102400;27;19931;-78
2024/01/02 06:06:11;;;;;;;;;;;6.80;99.90;;;;;;5107218;27;21178;-78
2024/01/02 06:08:36;;;;;;;;;;;6.80;99.90;;;;;;5121456;27;20022;-79
2024/01/02 06:11:02;;;;;;;;;;;6.80;99.90;;;;;;5102935;27;20018;-78
2024/01/02 06:13:29;;;;;;;;;;;6.90;99.90;;;;;;5121972;27;19927;-79
2024/01/02 06:15:55;;;;;;;;;;;6.90;99.90;;;;;;5104681;27;19927;-79
2024/01/02 06:18:20;;;;;;;;;;;6.90;99.90;;;;;;5119227;27;19930;-78
2024/01/02 06:20:46;;;;;;;;;;;6.90;99.90;;;;;;5116923;27;19940;-79
2024/01/02 06:23:11;;;;;;;;;;;6.90;99.90;;;;;;5104403;27;19924;-79
2024/01/02 06:25:37;;;;;;;;;;;7.00;99.90;;;;;;5119555;27;20269;-78
2024/01/02 06:28:03;;;;;;;;;;;7.00;99.90;;;;;;5120348;27;19923;-79
2024/01/02 06:30:29;;;;;;;;;;;7.00;99.90;;;;;;5120669;27;19927;-79
2024/01/02 06:32:55;;;;;;;;;;;7.40;99.90;;;;;;5120885;27;19931;-79
2024/01/02 06:35:20;;;;;;;;;;;7.10;99.90;;;;;;5110599;27;19936;-79
2024/01/02 06:37:46;;;;;;;;;;;7.20;99.90;;;;;;5121271;27;19994;-79
2024/01/02 06:40:12;;;;;;;;;;;7.20;99.90;;;;;;5103224;27;20639;-79
2024/01/02 06:42:37;;;;;;;;;;;7.20;99.90;;;;;;5118823;27;20369;-79
2024/01/02 06:45:03;;;;;;;;;;;7.20;99.90;;;;;;5137587;27;19945;-79
2024/01/02 06:47:29;;;;;;;;;;;7.30;99.90;;;;;;5121417;27;19937;-80
2024/01/02 06:49:55;;;;;;;;;;;7.40;99.90;;;;;;5119707;27;19927;-81
2024/01/02 06:52:20;;;;;;;;;;;7.50;99.90;;;;;;5120418;27;20014;-81
2024/01/02 06:54:46;;;;;;;;;;;7.70;99.90;;;;;;5116992;27;20404;-79
2024/01/02 06:57:12;;;;;;;;;;;7.90;99.90;;;;;;5120372;27;19923;-80
2024/01/02 06:59:37;;;;;;;;;;;8.10;99.90;;;;;;5102510;27;19923;-79
2024/01/02 07:02:03;;;;;;;;;;;8.20;99.90;;;;;;5120578;27;19982;-79
2024/01/02 07:04:29;;;;;;;;;;;8.40;99.90;;;;;;5120098;27;19949;-79
2024/01/02 07:06:55;;;;;;;;;;;8.50;99.90;;;;;;5100837;27;19926;-80
2024/01/02 07:09:21;;;;;;;;;;;8.60;99.90;;;;;;5120979;27;19980;-79
2024/01/02 07:11:47;;;;;;;;;;;8.70;99.90;;;;;;5119251;27;19931;-80
2024/01/02 07:14:13;;;;;;;;;;;8.80;99.90;;;;;;5119466;27;19931;-82
2024/01/02 07:16:39;;;;;;;;;;;8.90;99.90;;;;;;5117270;27;20328;-83
2024/01/02 07:19:04;;;;;;;;;;;9.00;99.90;;;;;;5082777;27;20424;-81
2024/01/02 07:21:30;;;;;;;;;;;9.00;99.90;;;;;;5099534;27;19927;-81
2024/01/02 07:23:56;;;;;;;;;;;9.00;99.90;;;;;;5102893;27;19971;-83
2024/01/02 07:26:21;;;;;;;;;;;9.00;99.90;;;;;;5102640;27;19938;-83
2024/01/02 07:28:47;;;;;;;;;;;9.00;99.90;;;;;;5086194;27;19982;-81
2024/01/02 07:31:12;;;;;;;;;;;9.00;99.90;;;;;;5101109;27;19934;-80
2024/01/02 07:33:38;;;;;;;;;;;9.00;99.90;;;;;;5117691;27;19931;-79
2024/01/02 07:36:04;;;;;;;;;;;9.00;99.90;;;;;;5105429;27;19934;-82
2024/01/02 07:38:30;;;;;;;;;;;9.00;99.90;;;;;;5103673;27;19927;-84
2024/01/02 07:40:56;;;;;;;;;;;9.00;99.90;;;;;;5102517;27;19974;-81
2024/01/02 07:43:22;;;;;;;;;;;9.00;99.90;;;;;;5119975;27;19930;-85
2024/01/02 07:45:47;;;;;;;;;;;9.00;99.90;;;;;;5102024;27;19923;-84
2024/01/02 07:48:13;;;;;;;;;;;9.00;99.90;;;;;;5101856;27;20397;-80
2024/01/02 07:50:39;;;;;;;;;;;9.00;99.90;;;;;;5132625;27;19934;-81
2024/01/02 07:53:04;;;;;;;;;;;9.10;99.90;;;;;;5119271;27;20018;-81
2024/01/02 07:55:30;;;;;;;;;;;9.10;99.90;;;;;;5118038;27;19923;-80
2024/01/02 07:57:57;;;;;;;;;;;9.10;99.90;;;;;;5116996;27;20075;-80
2024/01/02 08:00:23;;;;;;;;;;;9.10;99.90;;;;;;5083346;27;19931;-76
2024/01/02 08:02:49;;;;;;;;;;;9.10;99.90;;;;;;5095718;27;19995;-81
2024/01/02 08:05:15;;;;;;;;;;;9.10;99.90;;;;;;5120336;27;20390;-82
2024/01/02 08:07:40;;;;;;;;;;;9.10;99.90;;;;;;5120538;27;19935;-81
2024/01/02 08:10:07;;;;;;;;;;;9.10;99.90;;;;;;5119682;27;20561;-82
2024/01/02 08:12:33;;;;;;;;;;;9.20;99.90;;;;;;5113609;27;20437;-81
2024/01/02 08:14:58;;;;;;;;;;;9.10;99.90;;;;;;5118875;27;19927;-82
2024/01/02 08:17:24;;;;;;;;;;;9.10;99.90;;;;;;5106717;27;19934;-81
2024/01/02 08:19:54;;;;;;;;;;;9.10;99.90;;;;;;5104492;27;20003;-81
2024/01/02 08:22:20;;;;;;;;;;;9.10;99.90;;;;;;5121088;27;19934;-81
2024/01/02 08:24:45;;;;;;;;;;;9.10;99.90;;;;;;5141698;27;19927;-82
2024/01/02 08:27:13;;;;;;;;;;;9.10;99.90;;;;;;5118994;27;19934;-80
2024/01/02 08:29:38;;;;;;;;;;;9.10;99.90;;;;;;5121459;27;20373;-81
2024/01/02 08:32:05;;;;;;;;;;;9.10;99.90;;;;;;5107610;27;20034;-83
2024/01/02 08:34:31;;;;;;;;;;;9.20;99.90;;;;;;5123398;27;19930;-83
2024/01/02 08:36:57;;;;;;;;;;;9.20;99.90;;;;;;5119693;27;20173;-80
2024/01/02 08:39:23;;;;;;;;;;;9.20;99.90;;;;;;5087974;27;20401;-80
2024/01/02 08:41:49;;;;;;;;;;;9.20;99.90;;;;;;5120487;27;19927;-81
2024/01/02 08:44:14;;;;;;;;;;;9.10;99.90;;;;;;5104848;27;19938;-80
2024/01/02 08:46:40;;;;;;;;;;;9.10;99.90;;;;;;5121426;27;20013;-80
2024/01/02 08:49:06;;;;;;;;;;;9.20;99.90;;;;;;5140164;27;20416;-81
2024/01/02 08:51:35;;;;;;;;;;;9.20;99.90;;;;;;5106590;27;20389;-81
2024/01/02 08:54:01;;;;;;;;;;;9.20;99.90;;;;;;5123886;27;19934;-81
2024/01/02 08:56:27;;;;;;;;;;;9.20;99.90;;;;;;5123981;27;20383;-82
2024/01/02 08:58:53;;;;;;;;;;;9.20;99.90;;;;;;5111175;27;19934;-80
2024/01/02 09:01:18;;;;;;;;;;;9.30;99.90;;;;;;5128696;27;19927;-81
2024/01/02 09:03:44;;;;;;;;;;;9.30;99.90;;;;;;5103626;27;19931;-81
2024/01/02 09:06:10;;;;;;;;;;;9.30;99.90;;;;;;5125446;27;19930;-81
2024/01/02 09:08:35;;;;;;;;;;;9.30;99.90;;;;;;5126421;27;19946;-81
2024/01/02 09:11:01;;;;;;;;;;;9.30;99.90;;;;;;5122488;27;20263;-81
2024/01/02 09:13:26;;;;;;;;;;;9.30;99.90;;;;;;5122531;27;19942;-81
2024/01/02 09:15:55;;;;;;;;;;;9.30;99.90;;;;;;5125001;27;20724;-81
2024/01/02 09:18:21;;;;;;;;;;;9.30;99.90;;;;;;5089170;27;19923;-81
2024/01/02 09:20:54;;;;;;;;;;;9.30;99.90;;;;;;5122844;27;19928;-81
2024/01/02 09:23:20;;;;;;;;;;;9.30;99.90;;;;;;5104912;27;20335;-81
2024/01/02 09:25:46;;;;;;;;;;;9.30;99.90;;;;;;5123199;27;19975;-81
2024/01/02 09:28:13;;;;;;;;;;;9.40;99.90;;;;;;5123683;27;20010;-80
2024/01/02 09:30:39;;;;;;;;;;;9.40;99.90;;;;;;5121815;27;19970;-81
2024/01/02 09:33:07;;;;;;;;;;;9.40;99.90;;;;;;5103682;27;19970;-81
2024/01/02 09:35:36;;;;;;;;;;;9.40;99.90;;;;;;5141249;27;20009;-81
2024/01/02 09:38:04;;;;;;;;;;;9.40;99.90;;;;;;5122152;27;19948;-80
2024/01/02 09:40:30;;;;;;;;;;;9.40;99.90;;;;;;5107932;27;20348;-80
2024/01/02 09:43:10;;;;;;;;;;;9.40;99.90;;;;;;5120967;27;19968;-80
2024/01/02 09:45:48;;;;;;;;;;;9.40;99.90;;;;;;5123182;27;19932;-81
2024/01/02 09:48:29;;;;;;;;;;;9.40;99.90;;;;;;5139239;27;19934;-80
2024/01/02 09:50:54;;;;;;;;;;;9.40;99.90;;;;;;5106113;27;20449;-80
2024/01/02 09:53:31;;;;;;;;;;;9.40;99.90;;;;;;5118107;27;19930;-80
2024/01/02 09:56:03;;;;;;;;;;;9.40;99.90;;;;;;5107021;27;19923;-81
2024/01/02 09:58:29;;;;;;;;;;;9.40;99.90;;;;;;5106706;27;19927;-81
2024/01/02 10:01:05;;;;;;;;;;;9.50;99.90;;;;;;5121056;27;19927;-80
2024/01/02 10:03:50;;;;;;;;;;;9.50;99.90;;;;;;5103285;27;19934;-79
2024/01/02 10:06:15;;;;;;;;;;;9.50;99.90;;;;;;5110573;27;19966;-79
2024/01/02 10:09:00;;;;;;;;;;;9.50;99.90;;;;;;5120400;27;20418;-79
2024/01/02 10:11:35;;;;;;;;;;;9.40;99.90;;;;;;5139592;27;19930;-86
2024/01/02 10:14:06;;;;;;;;;;;9.50;99.90;;;;;;5104823;27;20030;-88
2024/01/02 10:16:43;;;;;;;;;;;9.50;99.90;;;;;;5110908;27;20491;-86
2024/01/02 10:19:08;;;;;;;;;;;9.50;99.90;;;;;;5112460;27;19923;-89
2024/01/02 10:21:37;;;;;;;;;;;9.50;99.90;;;;;;5115452;27;19938;-87
2024/01/02 10:24:09;;;;;;;;;;;9.50;99.90;;;;;;5111714;27;19930;-81
2024/01/02 10:26:38;;;;;;;;;;;9.50;99.90;;;;;;5123728;27;20103;-78
2024/01/02 10:29:09;;;;;;;;;;;9.60;99.90;;;;;;5133214;27;19934;-78
2024/01/02 10:31:41;;;;;;;;;;;9.60;99.90;;;;;;5105715;27;20382;-79
2024/01/02 10:34:22;;;;;;;;;;;9.70;99.90;;;;;;5111347;27;19945;-80
2024/01/02 10:36:54;;;;;;;;;;;9.70;99.90;;;;;;5122949;27;20400;-81
2024/01/02 10:39:34;;;;;;;;;;;9.80;99.90;;;;;;5127065;27;19934;-92
2024/01/02 10:42:02;;;;;;;;;;;10.00;99.90;;;;;;5126956;27;20009;-90
2024/01/02 10:44:31;;;;;;;;;;;10.10;99.90;;;;;;5114635;27;20338;-92
2024/01/02 10:46:56;;;;;;;;;;;10.00;99.90;;;;;;5109193;27;19991;-88
2024/01/02 10:49:28;;;;;;;;;;;10.00;99.90;;;;;;5108670;27;19924;-89
2024/01/02 10:52:01;;;;;;;;;;;10.00;99.90;;;;;;5128546;27;19958;-92
2024/01/02 10:54:26;;;;;;;;;;;10.00;99.90;;;;;;5112349;27;19931;-91
2024/01/02 10:57:03;;;;;;;;;;;10.00;99.90;;;;;;5109280;27;20510;-91
2024/01/02 10:59:35;;;;;;;;;;;10.00;99.90;;;;;;5115206;27;19937;-91
2024/01/02 11:02:20;;;;;;;;;;;10.00;99.90;;;;;;5110421;27;19927;-92
2024/01/02 11:04:54;;;;;;;;;;;10.00;99.90;;;;;;5115432;27;19963;-93
2024/01/02 11:07:34;;;;;;;;;;;10.00;99.90;;;;;;5150114;27;19925;-89
2024/01/02 11:10:22;;;;;;;;;;;10.00;99.90;;;;;;5110305;27;19962;-90
2024/01/02 11:13:03;;;;;;;;;;;10.00;99.90;;;;;;5110725;27;19923;-88
2024/01/02 11:15:36;;;;;;;;;;;10.00;99.90;;;;;;5102844;27;20529;-90
2024/01/02 11:18:05;;;;;;;;;;;10.00;99.90;;;;;;5103505;27;20022;-86
2024/01/02 11:21:14;;;;;;;;;;;10.00;99.90;;;;;;5124094;27;19923;-89
2024/01/02 11:23:42;;;;;;;;;;;10.00;99.90;;;;;;5103143;27;19931;-90
2024/01/02 11:26:47;;;;;;;;;;;8.70;99.90;;;;;;5128610;27;21313;-85
2024/01/02 11:29:22;;;;;;;;;;;10.00;99.90;;;;;;5091359;27;20361;-86
2024/01/02 11:31:49;;;;;;;;;;;10.00;99.90;;;;;;5102299;27;19973;-91
2024/01/02 11:34:18;;;;;;;;;;;9.90;99.90;;;;;;5121831;27;20011;-88
2024/01/02 11:36:59;;;;;;;;;;;9.90;99.90;;;;;;5118034;27;19927;-87
2024/01/02 11:39:40;;;;;;;;;;;10.00;99.90;;;;;;5115197;27;19986;-80
2024/01/02 11:42:25;;;;;;;;;;;9.90;99.90;;;;;;5123716;27;19971;-86
2024/01/02 11:44:54;;;;;;;;;;;9.90;99.90;;;;;;5124973;27;19963;-88
2024/01/02 11:47:23;;;;;;;;;;;9.90;99.90;;;;;;5111425;27;19927;-87
2024/01/02 11:49:51;;;;;;;;;;;9.90;99.90;;;;;;5125953;27;19926;-86
2024/01/02 11:52:18;;;;;;;;;;;9.90;99.90;;;;;;5128312;27;20380;-87
2024/01/02 11:55:00;;;;;;;;;;;9.90;99.90;;;;;;5098087;27;19927;-87
2024/01/02 11:57:31;;;;;;;;;;;9.90;99.90;;;;;;5112568;27;20013;-88
2024/01/02 12:00:03;;;;;;;;;;;9.90;99.90;;;;;;5127935;27;20026;-85
2024/01/02 12:02:47;;;;;;;;;;;9.90;99.90;;;;;;5113029;27;19948;-89
2024/01/02 12:05:24;;;;;;;;;;;10.00;99.90;;;;;;5127876;27;20238;-91
2024/01/02 12:07:52;;;;;;;;;;;10.00;99.90;;;;;;5114347;27;19967;-93
2024/01/02 12:10:18;;;;;;;;;;;10.00;99.90;;;;;;5115066;27;19927;-92
2024/01/02 12:13:00;;;;;;;;;;;10.00;99.90;;;;;;5112725;27;19931;-90
2024/01/02 12:15:32;;;;;;;;;;;10.00;99.90;;;;;;5108413;27;19931;-90
2024/01/02 12:18:00;;;;;;;;;;;10.00;99.90;;;;;;5132476;27;19927;-93
2024/01/02 12:20:28;;;;;;;;;;;10.00;99.90;;;;;;5134671;27;19927;-90
2024/01/02 12:22:55;;;;;;;;;;;10.00;99.90;;;;;;5114754;27;21735;-88
2024/01/02 12:25:21;;;;;;;;;;;10.10;99.90;;;;;;5111123;27;19927;-88
2024/01/02 12:27:50;;;;;;;;;;;10.10;99.90;;;;;;5113129;27;19946;-87
2024/01/02 12:30:30;;;;;;;;;;;10.00;99.90;;;;;;5127780;27;19933;-92
2024/01/02 12:33:10;;;;;;;;;;;10.00;99.90;;;;;;5129236;27;20560;-90
2024/01/02 12:35:42;;;;;;;;;;;10.00;99.90;;;;;;5130075;27;19970;-89
2024/01/02 12:38:17;;;;;;;;;;;9.90;99.90;;;;;;5111708;27;19927;-92
2024/01/02 12:40:48;;;;;;;;;;;9.90;99.90;;;;;;5097447;27;19934;-86
2024/01/02 12:43:21;;;;;;;;;;;9.90;99.90;;;;;;5109745;27;20799;-92
2024/01/02 12:46:05;;;;;;;;;;;9.90;99.90;;;;;;5127254;27;19934;-91
2024/01/02 12:48:41;;;;;;;;;;;9.90;99.90;;;;;;5107241;27;20376;-91
2024/01/02 12:51:07;;;;;;;;;;;9.80;99.90;;;;;;5107065;27;19923;-90
2024/01/02 12:53:37;;;;;;;;;;;9.90;99.90;;;;;;5109034;27;19924;-88
2024/01/02 12:56:05;;;;;;;;;;;10.00;99.90;;;;;;5108318;27;20495;-90
2024/01/02 12:58:32;;;;;;;;;;;9.90;99.90;;;;;;5112697;27;19927;-88
2024/01/02 13:01:00;;;;;;;;;;;9.90;99.90;;;;;;5107062;27;20463;-88
2024/01/02 13:03:27;;;;;;;;;;;9.90;99.90;;;;;;5092071;27;19923;-92
2024/01/02 13:05:54;;;;;;;;;;;9.90;99.90;;;;;;5125505;27;20002;-90
2024/01/02 13:08:20;;;;;;;;;;;10.00;99.90;;;;;;5128445;27;19986;-93
2024/01/02 13:10:48;;;;;;;;;;;10.00;99.90;;;;;;5111866;27;20381;-89
2024/01/02 13:13:15;;;;;;;;;;;10.00;99.90;;;;;;5112815;27;19923;-88
2024/01/02 13:15:42;;;;;;;;;;;10.00;99.90;;;;;;5108583;27;19948;-88
2024/01/02 13:18:15;;;;;;;;;;;10.00;99.90;;;;;;5108908;27;19982;-86
2024/01/02 13:20:40;;;;;;;;;;;10.00;99.90;;;;;;5108646;27;19923;-88
2024/01/02 13:23:06;;;;;;;;;;;10.00;99.90;;;;;;5105065;27;19941;-90
2024/01/02 13:25:39;;;;;;;;;;;10.00;99.90;;;;;;5105608;27;19923;-89
2024/01/02 13:28:21;;;;;;;;;;;10.00;99.90;;;;;;5108407;27;19966;-89
2024/01/02 13:30:49;;;;;;;;;;;10.00;99.90;;;;;;5110048;27;19931;-91
2024/01/02 13:33:17;;;;;;;;;;;10.00;99.90;;;;;;5109912;27;19931;-86
2024/01/02 13:35:48;;;;;;;;;;;10.00;99.90;;;;;;5111919;27;20289;-91
2024/01/02 13:38:15;;;;;;;;;;;10.00;99.90;;;;;;5114736;27;19992;-90
2024/01/02 13:40:42;;;;;;;;;;;9.90;99.90;;;;;;5110141;27;19983;-89
2024/01/02 13:43:11;;;;;;;;;;;9.90;99.90;;;;;;5109237;27;19923;-90
2024/01/02 13:45:40;;;;;;;;;;;9.90;99.90;;;;;;5119595;27;19934;-88
2024/01/02 13:48:12;;;;;;;;;;;9.80;99.90;;;;;;5112293;27;20644;-85
2024/01/02 13:50:39;;;;;;;;;;;9.80;99.90;;;;;;5125555;27;20231;-87
2024/01/02 13:53:06;;;;;;;;;;;9.80;99.90;;;;;;5111394;27;19931;-86
2024/01/02 13:55:39;;;;;;;;;;;9.80;99.90;;;;;;5097107;27;19975;-84
2024/01/02 13:58:14;;;;;;;;;;;9.70;99.90;;;;;;5128380;27;20357;-85
2024/01/02 14:00:50;;;;;;;;;;;9.70;99.90;;;;;;5093270;27;20031;-89
2024/01/02 14:03:16;;;;;;;;;;;9.70;99.90;;;;;;5090876;27;19927;-89
2024/01/02 14:05:45;;;;;;;;;;;9.70;99.90;;;;;;5092275;27;19932;-88
2024/01/02 14:08:15;;;;;;;;;;;9.70;99.90;;;;;;5094189;27;20270;-85
2024/01/02 14:10:42;;;;;;;;;;;8.30;99.90;;;;;;5106044;27;19954;-88
2024/01/02 14:13:27;;;;;;;;;;;9.70;99.90;;;;;;5109762;27;19934;-92
2024/01/02 14:15:56;;;;;;;;;;;9.70;99.90;;;;;;5125142;27;20014;-87
2024/01/02 14:18:23;;;;;;;;;;;9.70;99.90;;;;;;5109328;27;19926;-88
2024/01/02 14:20:56;;;;;;;;;;;9.70;99.90;;;;;;5109214;27;19923;-87
2024/01/02 14:23:26;;;;;;;;;;;9.60;99.90;;;;;;5129012;27;19923;-92
2024/01/02 14:26:07;;;;;;;;;;;9.80;99.90;;;;;;5110950;27;19942;-85
2024/01/02 14:28:47;;;;;;;;;;;9.80;99.90;;;;;;5108754;27;19931;-90
2024/01/02 14:31:25;;;;;;;;;;;9.80;99.90;;;;;;5110264;27;19923;-83
2024/01/02 14:33:54;;;;;;;;;;;10.00;99.90;;;;;;5123923;27;20007;-85